Time;durP1;ratioP1;P1;durP2;ratioP2;P2;SDS_P1;SDS_P2;PMS_P1;PMS_P2;Temp;Humidity;BMP_temperature;BMP_pressure;BME280_temperature;BME280_humidity;BME280_pressure;Samples;Min_cycle;Max_cycle;Signal;HPM_P1;HPM_P2
2021/07/16 00:01:36;;;;;;;;;16.00;12.50;;;;;20.13;57.52;101838.13;5003894;28;45635;-87
2021/07/16 00:04:02;;;;;;;;;10.00;10.00;;;;;20.08;57.80;101835.59;5003188;28;45709;-86
2021/07/16 00:06:27;;;;;;;;;13.50;12.50;;;;;20.10;57.38;101833.75;5009081;28;45248;-87
2021/07/16 00:08:53;;;;;;;;;13.33;10.33;;;;;20.14;57.59;101834.53;5010831;28;45725;-86
2021/07/16 00:11:19;;;;;;;;;9.50;9.50;;;;;20.13;57.54;101827.41;5002266;28;45412;-86
2021/07/16 00:13:46;;;;;;;;;17.67;13.67;;;;;20.13;57.45;101822.06;4999438;28;47036;-85
2021/07/16 00:16:12;;;;;;;;;13.33;12.00;;;;;20.14;57.45;101822.06;5004143;28;45221;-87
2021/07/16 00:18:38;;;;;;;;;11.67;11.67;;;;;20.15;57.09;101820.25;5021123;28;45281;-87
2021/07/16 00:21:03;;;;;;;;;15.67;12.00;;;;;20.19;57.55;101827.28;5003546;28;45548;-87
2021/07/16 00:23:30;;;;;;;;;11.00;11.00;;;;;20.17;57.07;101819.28;5018908;28;45434;-87
2021/07/16 00:25:56;;;;;;;;;13.33;11.33;;;;;20.15;57.51;101817.56;5026480;28;45364;-87
2021/07/16 00:28:24;;;;;;;;;12.00;11.67;;;;;20.16;57.15;101824.69;5008012;28;45510;-87
2021/07/16 00:30:50;;;;;;;;;12.67;11.33;;;;;20.16;57.20;101825.56;5010752;28;45509;-87
2021/07/16 00:33:16;;;;;;;;;12.33;12.00;;;;;20.19;57.61;101819.25;5006865;28;47119;-87
2021/07/16 00:35:42;;;;;;;;;14.00;12.67;;;;;20.14;57.42;101818.50;5004312;28;45174;-86
2021/07/16 00:38:12;;;;;;;;;12.33;11.33;;;;;20.07;57.40;101819.56;5016262;28;45219;-87
2021/07/16 00:40:41;;;;;;;;;9.33;9.00;;;;;20.10;57.88;101828.41;5009064;28;45360;-87
2021/07/16 00:43:06;;;;;;;;;10.00;9.00;;;;;20.09;57.80;101829.31;4995940;28;46850;-88
2021/07/16 00:45:31;;;;;;;;;9.67;9.67;;;;;20.10;57.61;101828.41;5005952;28;45825;-86
2021/07/16 00:47:59;;;;;;;;;11.00;11.00;;;;;20.12;57.64;101829.22;5001254;28;45344;-87
2021/07/16 00:50:34;;;;;;;;;12.33;11.00;;;;;20.12;58.04;101823.88;5010374;28;45865;-87
2021/07/16 00:53:01;;;;;;;;;11.33;9.00;;;;;20.08;58.42;101824.03;4996222;28;46848;-87
2021/07/16 00:55:28;;;;;;;;;10.00;10.00;;;;;20.04;58.67;101833.91;5017527;28;45452;-87
2021/07/16 00:57:54;;;;;;;;;11.67;10.00;;;;;20.03;58.11;101842.84;5008933;28;45380;-87
2021/07/16 01:00:20;;;;;;;;;9.00;9.00;;;;;20.01;58.25;101829.50;5018924;28;45366;-88
2021/07/16 01:02:45;;;;;;;;;7.67;7.67;;;;;20.01;58.31;101828.63;5005171;28;45405;-88
2021/07/16 01:05:18;;;;;;;;;9.33;9.33;;;;;20.02;58.26;101828.59;4999450;28;45254;-86
2021/07/16 01:07:46;;;;;;;;;11.00;11.00;;;;;20.00;58.27;101832.22;5004170;28;45257;-88
2021/07/16 01:10:13;;;;;;;;;8.67;8.67;;;;;19.95;58.90;101824.31;4990983;28;45822;-88
2021/07/16 01:12:42;;;;;;;;;10.33;9.67;;;;;20.02;58.63;101830.38;4985500;28;47290;-87
2021/07/16 01:15:10;;;;;;;;;11.00;10.00;;;;;20.01;58.41;101831.31;4985574;28;45544;-88
2021/07/16 01:17:39;;;;;;;;;12.33;10.00;;;;;20.01;58.34;101831.31;4991264;28;45267;-87
2021/07/16 01:20:08;;;;;;;;;9.00;9.00;;;;;20.01;58.91;101832.19;5011525;28;45473;-86
2021/07/16 01:22:36;;;;;;;;;12.33;12.33;;;;;20.02;58.67;101833.94;5002865;28;45429;-87
2021/07/16 01:25:14;;;;;;;;;11.33;9.00;;;;;20.01;59.03;101837.53;4995816;28;45969;-87
2021/07/16 01:27:41;;;;;;;;;12.67;10.67;;;;;20.00;58.50;101833.09;4985960;28;45284;-87
2021/07/16 01:30:09;;;;;;;;;17.33;12.67;;;;;20.00;59.07;101827.75;5007928;28;45384;-87
2021/07/16 01:32:37;;;;;;;;;19.25;17.25;;;;;20.01;58.94;101832.19;5006838;28;48154;-87
2021/07/16 01:35:08;;;;;;;;;15.25;15.00;;;;;19.99;59.27;101834.03;4994711;28;45829;-88
2021/07/16 01:37:35;;;;;;;;;19.50;16.75;;;;;20.02;58.73;101831.28;4999748;28;45360;-87
2021/07/16 01:40:05;;;;;;;;;19.00;17.75;;;;;20.02;58.86;101833.03;4986842;28;45479;-87
2021/07/16 01:42:43;;;;;;;;;23.50;19.75;;;;;20.01;59.27;101826.81;5002630;28;47294;-88
2021/07/16 01:45:11;;;;;;;;;27.75;21.50;;;;;20.01;58.51;101829.50;5016906;28;45595;-88
2021/07/16 01:47:39;;;;;;;;;16.00;13.33;;;;;20.04;58.83;101836.56;5014403;28;45400;-87
2021/07/16 01:50:06;;;;;;;;;15.75;14.50;;;;;20.02;58.81;101828.59;4984895;28;45397;-87
2021/07/16 01:52:32;;;;;;;;;11.33;10.67;;;;;20.04;59.18;101839.25;4995128;28;47993;-87
2021/07/16 01:54:58;;;;;;;;;14.33;12.67;;;;;19.95;59.59;101835.00;4988293;28;45452;-87
2021/07/16 01:57:26;;;;;;;;;12.00;12.00;;;;;19.90;58.87;101842.28;5002393;28;45336;-87
2021/07/16 01:59:51;;;;;;;;;8.67;8.67;;;;;19.91;59.02;101835.13;4991790;28;45463;-87
2021/07/16 02:02:17;;;;;;;;;9.33;8.67;;;;;19.92;59.50;101834.22;5005256;28;47848;-87
2021/07/16 02:04:42;;;;;;;;;10.00;10.00;;;;;19.93;59.46;101833.28;5003497;28;45234;-87
2021/07/16 02:07:08;;;;;;;;;8.00;8.00;;;;;19.93;59.50;101833.28;5005352;28;45318;-87
2021/07/16 02:09:34;;;;;;;;;11.67;10.33;;;;;19.94;59.33;101829.69;5003212;28;45466;-86
2021/07/16 02:11:59;;;;;;;;;7.67;6.33;;;;;19.95;59.21;101828.78;5012537;28;45300;-88
2021/07/16 02:14:30;;;;;;;;;8.00;8.00;;;;;19.94;59.88;101832.38;5014817;28;45297;-88
2021/07/16 02:17:02;;;;;;;;;9.00;9.00;;;;;19.92;59.25;101824.41;4994999;28;45412;-87
2021/07/16 02:19:36;;;;;;;;;9.67;7.00;;;;;19.89;59.42;101820.91;5016786;28;45375;-85
2021/07/16 02:22:06;;;;;;;;;8.67;8.67;;;;;19.83;59.61;101822.84;4996959;28;46420;-87
2021/07/16 02:24:33;;;;;;;;;8.67;8.00;;;;;19.82;60.04;101825.53;5000623;28;45508;-86
2021/07/16 02:26:59;;;;;;;;;7.67;7.33;;;;;19.79;60.09;101821.16;5008055;28;45194;-87
2021/07/16 02:29:24;;;;;;;;;7.67;5.00;;;;;19.74;60.88;101817.72;5007484;28;45225;-86
2021/07/16 02:31:51;;;;;;;;;9.33;9.00;;;;;19.70;60.23;101820.50;5013101;28;46708;-87
2021/07/16 02:34:16;;;;;;;;;9.00;8.33;;;;;19.65;60.47;101817.91;5004826;28;45356;-87
2021/07/16 02:36:42;;;;;;;;;7.67;7.67;;;;;19.69;60.56;101822.28;4989766;28;45372;-87
2021/07/16 02:39:07;;;;;;;;;6.00;4.00;;;;;19.69;60.45;101829.44;4992684;28;45388;-86
2021/07/16 02:41:33;;;;;;;;;9.67;9.67;;;;;19.69;60.57;101819.63;5026187;28;46290;-86
2021/07/16 02:43:58;;;;;;;;;8.67;7.67;;;;;19.67;61.07;101821.44;5029910;28;45295;-86
2021/07/16 02:46:26;;;;;;;;;10.00;9.00;;;;;19.68;61.01;101815.22;5022280;28;45409;-87
2021/07/16 02:48:52;;;;;;;;;10.00;8.67;;;;;19.68;60.60;101820.53;5001311;28;45304;-87
2021/07/16 02:51:17;;;;;;;;;9.00;6.67;;;;;19.72;60.71;101821.34;5019393;28;46268;-87
2021/07/16 02:53:42;;;;;;;;;12.67;9.33;;;;;19.76;60.78;101823.03;5000551;28;45239;-88
2021/07/16 02:56:11;;;;;;;;;6.00;5.67;;;;;19.77;61.35;101817.63;4994144;28;45268;-87
2021/07/16 02:58:44;;;;;;;;;10.33;9.33;;;;;19.71;60.78;101814.25;5010793;28;45552;-87
2021/07/16 03:01:12;;;;;;;;;7.33;6.33;;;;;19.67;60.95;101826.78;5007041;28;47334;-87
2021/07/16 03:03:37;;;;;;;;;7.67;7.67;;;;;19.63;61.38;101818.88;4999041;28;45355;-88
2021/07/16 03:06:05;;;;;;;;;6.00;6.00;;;;;19.59;61.54;101818.94;4988088;28;45428;-87
2021/07/16 03:08:33;;;;;;;;;6.33;6.33;;;;;19.56;61.95;101819.00;4995199;28;45450;-87
2021/07/16 03:10:58;;;;;;;;;8.67;6.67;;;;;19.57;61.14;101822.56;5007071;28;47082;-86
2021/07/16 03:13:23;;;;;;;;;7.00;6.00;;;;;19.60;61.30;101822.50;4998048;28;45323;-87
2021/07/16 03:15:51;;;;;;;;;6.00;5.00;;;;;19.61;61.54;101827.78;5002303;28;45323;-87
2021/07/16 03:18:20;;;;;;;;;8.00;6.00;;;;;19.61;61.37;101830.44;5015987;28;45398;-87
2021/07/16 03:20:49;;;;;;;;;7.00;6.33;;;;;19.60;61.53;101831.38;5004426;28;45637;-87
2021/07/16 03:23:16;;;;;;;;;11.00;10.00;;;;;19.61;61.21;101834.94;5011077;28;45429;-85
2021/07/16 03:25:44;;;;;;;;;6.00;6.00;;;;;19.63;61.36;101826.88;4993520;28;45477;-87
2021/07/16 03:28:13;;;;;;;;;9.33;8.33;;;;;19.65;61.87;101830.41;5017117;28;45454;-87
2021/07/16 03:30:40;;;;;;;;;10.00;7.00;;;;;19.64;61.68;101831.31;5010030;28;47746;-89
2021/07/16 03:33:06;;;;;;;;;7.33;7.33;;;;;19.57;61.93;101828.78;5010044;28;45886;-87
2021/07/16 03:35:31;;;;;;;;;6.33;6.33;;;;;19.55;61.90;101841.28;5006362;28;45467;-87
2021/07/16 03:37:57;;;;;;;;;6.33;6.33;;;;;19.53;61.82;101836.91;4995581;28;45651;-87
2021/07/16 03:40:30;;;;;;;;;6.67;5.33;;;;;19.53;61.82;101835.09;5019783;28;45589;-86
2021/07/16 03:42:57;;;;;;;;;5.33;5.33;;;;;19.50;61.88;101834.31;5007741;28;45244;-86
2021/07/16 03:45:23;;;;;;;;;1.00;1.00;;;;;19.53;61.92;101836.91;5024656;28;45422;-86
2021/07/16 03:47:52;;;;;;;;;8.00;7.00;;;;;19.49;62.16;101832.56;5009253;28;46377;-88
2021/07/16 03:50:20;;;;;;;;;7.33;6.00;;;;;19.47;62.55;101837.94;4993719;28;48608;-86
2021/07/16 03:52:46;;;;;;;;;7.00;4.00;;;;;19.44;62.46;101839.81;5002204;28;45254;-87
2021/07/16 03:55:12;;;;;;;;;6.00;6.00;;;;;19.45;62.62;101836.22;5000419;28;45480;-87
2021/07/16 03:57:45;;;;;;;;;6.00;5.00;;;;;19.48;61.98;101833.47;4991918;28;45878;-87
2021/07/16 04:00:13;;;;;;;;;7.33;7.33;;;;;19.49;62.90;101841.44;5023549;28;45747;-87
2021/07/16 04:02:38;;;;;;;;;6.00;6.00;;;;;19.44;62.91;101831.78;5023173;28;45351;-86
2021/07/16 04:05:04;;;;;;;;;5.33;5.33;;;;;19.43;62.35;101838.03;5003873;28;45438;-87
2021/07/16 04:07:34;;;;;;;;;7.00;7.00;;;;;19.40;62.83;101836.31;4996743;28;45600;-87
2021/07/16 04:10:00;;;;;;;;;8.33;7.00;;;;;19.37;63.25;101831.91;5005682;28;48183;-87
2021/07/16 04:12:25;;;;;;;;;7.33;6.00;;;;;19.36;63.21;101830.16;4991747;28;45243;-86
2021/07/16 04:14:57;;;;;;;;;7.33;6.33;;;;;19.31;62.91;101829.38;4993726;28;45147;-88
2021/07/16 04:17:26;;;;;;;;;8.00;8.00;;;;;19.29;63.80;101831.19;5007759;28;45216;-86
2021/07/16 04:19:53;;;;;;;;;8.00;8.00;;;;;19.28;63.44;101829.47;5003696;28;46583;-87
2021/07/16 04:22:22;;;;;;;;;6.33;6.00;;;;;19.23;64.20;101838.50;5001126;28;45695;-86
2021/07/16 04:24:48;;;;;;;;;7.00;7.00;;;;;19.22;64.12;101840.28;4992713;28;45235;-86
2021/07/16 04:27:14;;;;;;;;;8.00;8.00;;;;;19.20;64.65;101843.91;5002692;28;45249;-87
2021/07/16 04:29:43;;;;;;;;;5.33;5.33;;;;;19.14;64.40;101845.78;4998628;28;47089;-87
2021/07/16 04:32:12;;;;;;;;;7.00;7.00;;;;;19.14;65.02;101850.25;5025556;28;45349;-87
2021/07/16 04:34:38;;;;;;;;;7.00;7.00;;;;;19.13;64.72;101841.34;4990067;28;45309;-86
2021/07/16 04:37:05;;;;;;;;;9.00;7.67;;;;;19.13;65.06;101846.69;5003632;28;45255;-85
2021/07/16 04:39:34;;;;;;;;;8.67;8.67;;;;;19.11;64.72;101850.28;4993393;28;47220;-87
2021/07/16 04:42:00;;;;;;;;;8.00;6.00;;;;;19.11;65.41;101847.63;4992422;28;45432;-86
2021/07/16 04:44:25;;;;;;;;;10.00;8.00;;;;;19.05;64.71;101845.97;5013833;28;45339;-87
2021/07/16 04:46:56;;;;;;;;;8.67;8.33;;;;;19.05;65.54;101850.44;5020282;28;45489;-87
2021/07/16 04:49:22;;;;;;;;;10.67;8.00;;;;;19.04;65.15;101856.69;5022772;28;45501;-87
2021/07/16 04:51:47;;;;;;;;;8.00;8.00;;;;;18.99;65.58;101848.78;4989811;28;45805;-88
2021/07/16 04:54:15;;;;;;;;;6.33;5.33;;;;;19.02;65.54;101853.19;4993667;28;45403;-87
2021/07/16 04:56:41;;;;;;;;;7.00;5.33;;;;;19.00;65.57;101852.31;5025073;28;45481;-87
2021/07/16 04:59:07;;;;;;;;;8.33;7.00;;;;;19.02;65.67;101847.84;5012030;28;45261;-87
2021/07/16 05:01:32;;;;;;;;;11.00;9.00;;;;;19.03;66.17;101854.91;5002171;28;45229;-87
2021/07/16 05:04:00;;;;;;;;;9.00;8.00;;;;;19.03;65.66;101858.50;4984187;28;45279;-87
2021/07/16 05:06:25;;;;;;;;;7.67;7.67;;;;;19.07;65.75;101864.63;4998815;28;45931;-86
2021/07/16 05:08:52;;;;;;;;;8.67;6.00;;;;;19.06;65.37;101861.09;4990582;28;48182;-86
2021/07/16 05:11:18;;;;;;;;;9.00;8.00;;;;;19.07;65.52;101859.28;4998097;28;45803;-87
2021/07/16 05:13:47;;;;;;;;;11.33;10.00;;;;;19.06;65.38;101865.53;5001650;28;45399;-87
2021/07/16 05:16:14;;;;;;;;;5.67;5.67;;;;;19.08;65.19;101858.38;5001380;28;45444;-86
2021/07/16 05:18:43;;;;;;;;;9.00;7.33;;;;;19.11;65.25;101860.97;5021364;28;45523;-88
2021/07/16 05:21:10;;;;;;;;;7.67;6.67;;;;;19.08;65.23;101863.72;5003291;28;45422;-88
2021/07/16 05:23:36;;;;;;;;;7.00;7.00;;;;;19.12;65.36;101868.09;5012728;28;45435;-88
2021/07/16 05:26:02;;;;;;;;;7.00;7.00;;;;;19.14;65.17;101861.81;5017885;28;45443;-87
2021/07/16 05:28:28;;;;;;;;;7.67;7.00;;;;;19.12;65.43;101868.09;4994135;28;45513;-87
2021/07/16 05:30:56;;;;;;;;;9.67;7.00;;;;;19.14;65.51;101877.81;5003675;28;45249;-88
2021/07/16 05:33:24;;;;;;;;;6.00;6.00;;;;;19.12;65.44;101868.97;4994545;28;45464;-87
2021/07/16 05:35:50;;;;;;;;;8.33;7.00;;;;;19.07;65.47;101868.19;5009806;28;45286;-87
2021/07/16 05:38:16;;;;;;;;;6.00;6.00;;;;;19.06;65.09;101874.44;5021503;28;46252;-88
2021/07/16 05:40:41;;;;;;;;;8.00;6.00;;;;;19.06;65.58;101871.78;4999095;28;45206;-86
2021/07/16 05:43:11;;;;;;;;;3.33;3.33;;;;;19.08;64.82;101874.38;5013767;28;45206;-85
2021/07/16 05:45:38;;;;;;;;;4.67;4.33;;;;;19.09;65.29;101882.38;5004516;28;45490;-88
2021/07/16 05:48:04;;;;;;;;;6.00;6.00;;;;;19.12;64.74;101879.63;5023072;28;45623;-84
2021/07/16 05:50:33;;;;;;;;;5.67;5.67;;;;;19.13;64.60;101872.50;5004673;28;44991;-84
2021/07/16 05:53:01;;;;;;;;;9.67;6.67;;;;;19.13;64.87;101875.16;4999868;28;45250;-86
2021/07/16 05:55:29;;;;;;;;;5.33;5.33;;;;;19.19;64.94;101883.03;5002429;28;45519;-85
2021/07/16 05:57:55;;;;;;;;;8.33;8.33;;;;;19.23;64.96;101886.53;4990896;28;46588;-84
2021/07/16 06:00:20;;;;;;;;;10.00;10.00;;;;;19.29;64.74;101895.28;4996923;28;45314;-86
2021/07/16 06:02:46;;;;;;;;;7.33;5.00;;;;;19.31;64.45;101889.94;4984697;28;45518;-85
2021/07/16 06:05:11;;;;;;;;;16.00;13.00;;;;;19.34;64.08;101892.53;5007429;28;45281;-87
2021/07/16 06:07:37;;;;;;;;;6.67;5.67;;;;;19.38;64.15;101895.09;4990529;28;47345;-86
2021/07/16 06:10:06;;;;;;;;;8.00;7.67;;;;;19.39;64.08;101893.31;4990621;28;45310;-85
2021/07/16 06:12:32;;;;;;;;;5.00;4.00;;;;;19.36;64.06;101893.38;5002843;28;45440;-86
2021/07/16 06:15:00;;;;;;;;;6.00;6.00;;;;;19.32;64.45;101892.56;4995567;28;45660;-85
2021/07/16 06:17:27;;;;;;;;;6.33;6.00;;;;;19.29;64.99;101897.09;4996835;28;47871;-85
2021/07/16 06:19:53;;;;;;;;;5.33;5.33;;;;;19.27;65.19;101902.47;5013150;28;45321;-86
2021/07/16 06:22:19;;;;;;;;;5.00;5.00;;;;;19.24;64.70;101905.19;4997529;28;45356;-88
2021/07/16 06:24:47;;;;;;;;;5.33;5.33;;;;;19.18;65.19;101911.53;4983221;28;46009;-86
2021/07/16 06:27:12;;;;;;;;;6.33;5.33;;;;;19.14;65.58;101912.53;4992482;28;48672;-84
2021/07/16 06:29:38;;;;;;;;;7.00;3.67;;;;;19.12;65.16;101916.13;5013953;28;45439;-83
2021/07/16 06:32:06;;;;;;;;;5.00;5.00;;;;;19.09;65.39;101918.88;5023432;28;45488;-81
2021/07/16 06:34:32;;;;;;;;;4.67;4.67;;;;;19.03;64.93;101919.88;5005371;28;45559;-80
2021/07/16 06:36:57;;;;;;;;;4.00;2.67;;;;;19.03;65.88;101924.31;5001074;28;45529;-81
2021/07/16 06:39:23;;;;;;;;;6.00;6.00;;;;;18.99;65.85;101927.97;4993777;28;46123;-82
2021/07/16 06:41:51;;;;;;;;;5.00;5.00;;;;;18.99;65.26;101933.31;4997167;28;45403;-82
2021/07/16 06:44:17;;;;;;;;;2.67;1.33;;;;;18.98;66.08;101937.78;5012056;28;45514;-82
2021/07/16 06:46:43;;;;;;;;;8.00;7.00;;;;;18.99;65.81;101944.00;4996752;28;47141;-83
2021/07/16 06:49:09;;;;;;;;;9.00;6.67;;;;;19.04;65.73;101934.09;5011112;28;45442;-81
2021/07/16 06:51:35;;;;;;;;;6.00;5.67;;;;;19.11;65.48;101941.06;5000891;28;45413;-81
2021/07/16 06:54:03;;;;;;;;;5.00;5.00;;;;;19.09;65.94;101943.78;5001642;28;45414;-82
2021/07/16 06:56:30;;;;;;;;;7.00;7.00;;;;;19.07;65.69;101945.59;5020985;28;46257;-82
2021/07/16 06:58:56;;;;;;;;;7.33;6.00;;;;;19.07;66.00;101942.03;5007901;28;45472;-81
2021/07/16 07:01:21;;;;;;;;;4.67;4.67;;;;;19.14;65.90;101947.22;5002080;28;45835;-79
2021/07/16 07:03:47;;;;;;;;;6.00;6.00;;;;;19.16;65.87;101947.19;5017503;28;45530;-80
2021/07/16 07:06:12;;;;;;;;;6.00;6.00;;;;;19.18;66.49;101950.72;5000762;28;46025;-81
2021/07/16 07:08:38;;;;;;;;;5.00;5.00;;;;;19.22;65.73;101949.75;5009912;28;45470;-80
2021/07/16 07:11:04;;;;;;;;;3.00;3.00;;;;;19.25;64.93;101949.69;4994391;28;45348;-81
2021/07/16 07:13:30;;;;;;;;;4.33;4.33;;;;;19.25;64.48;101951.47;4986957;28;45965;-86
2021/07/16 07:15:58;;;;;;;;;3.00;3.00;;;;;19.24;64.47;101952.38;4998099;28;47409;-83
2021/07/16 07:18:23;;;;;;;;;3.00;3.00;;;;;19.30;64.46;101954.91;5004399;28;45473;-83
2021/07/16 07:20:49;;;;;;;;;3.00;3.00;;;;;19.36;63.57;101953.00;5020968;28;45596;-84
2021/07/16 07:23:14;;;;;;;;;3.00;3.00;;;;;19.40;63.40;101948.47;5008263;28;45582;-84
2021/07/16 07:25:40;;;;;;;;;4.00;3.00;;;;;19.47;63.05;101949.22;5007014;28;47453;-84
2021/07/16 07:28:05;;;;;;;;;3.00;2.67;;;;;19.51;62.75;101948.25;5002712;28;45309;-87
2021/07/16 07:30:31;;;;;;;;;1.33;1.00;;;;;19.61;62.54;101940.00;5013375;28;45304;-87
2021/07/16 07:33:03;;;;;;;;;3.00;3.00;;;;;19.76;62.09;101948.63;5023231;28;45466;-87
2021/07/16 07:35:30;;;;;;;;;4.00;4.00;;;;;19.91;62.12;101947.38;5008965;28;45375;-87
2021/07/16 07:37:55;;;;;;;;;2.67;2.67;;;;;20.01;62.10;101939.09;4993122;28;45242;-86
2021/07/16 07:40:21;;;;;;;;;3.67;2.67;;;;;20.09;61.00;101946.94;5004745;28;46387;-87
2021/07/16 07:42:46;;;;;;;;;3.00;2.67;;;;;20.15;61.07;101951.28;5013631;28;45479;-86
2021/07/16 07:45:13;;;;;;;;;4.00;3.00;;;;;20.19;61.19;101945.81;4986776;28;47830;-83
2021/07/16 07:47:38;;;;;;;;;3.67;3.67;;;;;20.19;60.09;101942.28;5005403;28;45552;-85
2021/07/16 07:50:07;;;;;;;;;4.00;3.33;;;;;20.22;60.52;101939.50;5002949;28;46097;-86
2021/07/16 07:52:33;;;;;;;;;4.67;3.67;;;;;20.28;60.96;101944.69;4994224;28;45377;-86
2021/07/16 07:55:01;;;;;;;;;2.00;2.00;;;;;20.30;60.05;101955.38;5002247;28;47134;-87
2021/07/16 07:57:26;;;;;;;;;4.00;3.00;;;;;20.27;60.15;101956.31;5001050;28;45464;-84
2021/07/16 07:59:52;;;;;;;;;2.00;1.67;;;;;20.18;60.73;101968.13;5019311;28;45518;-85
2021/07/16 08:02:17;;;;;;;;;2.00;1.33;;;;;20.07;60.44;101959.47;5002827;28;45531;-86
2021/07/16 08:04:45;;;;;;;;;4.00;3.00;;;;;19.99;61.21;101967.69;4997927;28;48038;-87
2021/07/16 08:07:11;;;;;;;;;2.00;2.00;;;;;19.94;61.47;101971.38;4995834;28;45592;-86
2021/07/16 08:09:38;;;;;;;;;2.00;2.00;;;;;19.90;61.89;101978.59;4988863;28;45495;-86
2021/07/16 08:12:05;;;;;;;;;2.67;2.67;;;;;19.91;61.86;101979.47;4995537;28;45850;-84
2021/07/16 08:14:30;;;;;;;;;1.67;1.67;;;;;19.93;62.56;101988.31;5001986;28;48980;-86
2021/07/16 08:16:56;;;;;;;;;2.00;2.00;;;;;19.96;62.21;101983.78;4997006;28;45254;-86
2021/07/16 08:19:24;;;;;;;;;4.00;2.00;;;;;20.02;62.41;101990.78;5000626;28;45270;-86
2021/07/16 08:21:55;;;;;;;;;2.00;2.00;;;;;20.08;62.01;102001.34;4981527;28;45543;-87
2021/07/16 08:24:23;;;;;;;;;2.00;2.00;;;;;20.12;61.99;101989.66;4987555;28;48102;-85
2021/07/16 08:26:49;;;;;;;;;1.00;1.00;;;;;20.16;61.73;101998.50;5002884;28;45465;-86
2021/07/16 08:29:16;;;;;;;;;2.00;2.00;;;;;20.22;61.83;101985.84;4992538;28;45448;-85
2021/07/16 08:31:43;;;;;;;;;1.00;1.00;;;;;20.27;61.33;101993.78;4988374;28;45776;-85
2021/07/16 08:34:17;;;;;;;;;1.67;1.67;;;;;20.28;61.00;101991.03;4994446;28;47157;-86
2021/07/16 08:36:44;;;;;;;;;1.00;0.00;;;;;20.30;60.69;101998.16;4993499;28;45259;-86
2021/07/16 08:39:13;;;;;;;;;3.00;2.00;;;;;20.31;60.53;101992.75;4995741;28;45265;-83
2021/07/16 08:41:41;;;;;;;;;1.67;1.67;;;;;20.37;60.80;101997.09;4981525;28;45559;-89
2021/07/16 08:44:09;;;;;;;;;3.00;2.00;;;;;20.47;60.51;102002.19;5027514;28;48929;-87
2021/07/16 08:46:37;;;;;;;;;1.33;1.33;;;;;20.56;60.34;101997.56;4992587;28;45500;-88
2021/07/16 08:49:16;;;;;;;;;2.33;2.33;;;;;20.59;59.86;102002.84;4990164;28;45416;-90
2021/07/16 08:51:43;;;;;;;;;3.67;3.67;;;;;20.58;59.88;102001.97;4999969;28;45749;-87
2021/07/16 08:54:13;;;;;;;;;3.33;3.33;;;;;20.55;59.75;102006.50;4992182;28;48022;-84
2021/07/16 08:56:39;;;;;;;;;3.33;3.00;;;;;20.48;60.02;101998.59;4993429;28;45532;-87
2021/07/16 08:59:11;;;;;;;;;3.00;2.00;;;;;20.34;59.85;101999.84;5007984;28;45527;-88
2021/07/16 09:01:41;;;;;;;;;2.00;1.00;;;;;20.10;60.64;102010.22;5005602;28;45453;-83
2021/07/16 09:04:10;;;;;;;;;4.00;4.00;;;;;19.95;61.56;102003.41;5003001;28;46218;-86
2021/07/16 09:06:51;;;;;;;;;4.00;4.00;;;;;19.89;60.96;102008.00;5001269;28;45228;-84
2021/07/16 09:09:21;;;;;;;;;2.00;2.00;;;;;19.74;60.85;102018.13;4987102;28;45414;-82
2021/07/16 09:11:51;;;;;;;;;4.33;3.33;;;;;19.64;61.09;102023.66;4980888;28;45426;-81
2021/07/16 09:14:21;;;;;;;;;7.00;6.00;;;;;19.58;61.49;102024.69;4991943;28;46114;-81
2021/07/16 09:17:15;;;;;;;;;2.33;2.33;;;;;19.55;60.74;102028.28;4995798;28;46723;-79
2021/07/16 09:19:48;;;;;;;;;5.67;4.67;;;;;19.45;61.11;102029.38;4984260;28;45230;-80
2021/07/16 09:22:16;;;;;;;;;3.33;3.33;;;;;19.38;61.77;102031.31;4994866;28;45445;-80
2021/07/16 09:25:03;;;;;;;;;5.00;4.00;;;;;19.39;61.59;102034.84;4994325;28;45448;-81
2021/07/16 09:27:44;;;;;;;;;4.00;3.00;;;;;19.29;62.11;102034.16;4994229;28;45363;-81
2021/07/16 09:30:12;;;;;;;;;5.33;4.00;;;;;19.23;62.33;102031.59;4984651;28;45370;-81
2021/07/16 09:32:44;;;;;;;;;5.67;5.67;;;;;19.16;62.60;102025.50;4995070;28;45457;-80
2021/07/16 09:35:09;;;;;;;;;3.00;3.00;;;;;19.13;62.94;102024.66;4999266;28;47131;-81
2021/07/16 09:37:56;;;;;;;;;4.33;4.33;;;;;19.10;63.22;102030.06;4985552;28;45289;-80
2021/07/16 09:40:27;;;;;;;;;6.00;5.00;;;;;19.09;63.21;102028.31;4997401;28;45446;-79
2021/07/16 09:43:02;;;;;;;;;5.67;5.00;;;;;19.11;63.25;102032.72;4998195;28;45349;-79
2021/07/16 09:45:27;;;;;;;;;6.33;5.00;;;;;19.21;62.62;102030.75;4990634;28;47422;-78
2021/07/16 09:47:53;;;;;;;;;4.00;4.00;;;;;19.34;62.53;102034.06;4999762;28;45270;-77
2021/07/16 09:50:24;;;;;;;;;4.00;4.00;;;;;19.45;60.86;102029.38;4995970;28;45293;-78
2021/07/16 09:53:17;;;;;;;;;4.00;3.00;;;;;19.55;61.26;102040.78;4993281;28;45437;-78
2021/07/16 09:55:43;;;;;;;;;6.67;6.67;;;;;19.69;59.62;102040.53;4988418;28;45489;-81
2021/07/16 09:58:27;;;;;;;;;3.00;2.33;;;;;19.75;59.91;102035.03;5000465;28;45420;-81
2021/07/16 10:00:54;;;;;;;;;6.00;5.00;;;;;19.81;59.86;102030.47;4975124;28;45437;-81
2021/07/16 10:03:21;;;;;;;;;4.67;4.33;;;;;20.03;59.54;102030.84;4979695;28;45394;-84
2021/07/16 10:05:49;;;;;;;;;4.67;3.67;;;;;20.24;58.80;102031.28;4992278;28;47812;-81
2021/07/16 10:08:16;;;;;;;;;4.00;4.00;;;;;20.48;57.38;102027.16;4983970;28;45561;-82
2021/07/16 10:10:43;;;;;;;;;6.33;5.67;;;;;20.68;57.82;102030.22;4990518;28;45586;-81
2021/07/16 10:13:12;;;;;;;;;4.00;4.00;;;;;20.83;56.32;102026.28;4989927;28;45430;-82
2021/07/16 10:15:45;;;;;;;;;7.33;6.33;;;;;21.01;55.44;102024.94;4990797;28;45618;-83
2021/07/16 10:18:13;;;;;;;;;5.33;4.33;;;;;21.20;56.20;102027.09;4980324;28;45812;-81
2021/07/16 10:20:45;;;;;;;;;4.00;4.00;;;;;21.37;54.71;102024.84;4994866;28;45639;-82
2021/07/16 10:23:13;;;;;;;;;6.33;6.33;;;;;21.40;54.07;102024.78;4992139;28;45344;-82
2021/07/16 10:25:39;;;;;;;;;7.00;6.67;;;;;21.38;53.83;102025.75;4981469;28;47571;-84
2021/07/16 10:28:08;;;;;;;;;7.33;7.33;;;;;21.34;54.13;102044.53;4990670;28;45441;-79
2021/07/16 10:30:37;;;;;;;;;6.67;6.00;;;;;21.35;54.39;102035.56;4996784;28;45553;-81
2021/07/16 10:33:05;;;;;;;;;7.00;6.33;;;;;21.30;54.16;102042.00;4988994;28;45544;-82
2021/07/16 10:35:42;;;;;;;;;8.67;7.67;;;;;21.14;54.34;102045.09;4997379;28;48150;-86
2021/07/16 10:38:31;;;;;;;;;7.33;6.33;;;;;20.98;54.37;102054.44;4984176;28;45287;-85
2021/07/16 10:40:58;;;;;;;;;6.00;6.00;;;;;20.84;54.05;102059.28;4978460;28;45307;-87
2021/07/16 10:43:30;;;;;;;;;6.33;6.00;;;;;20.70;54.58;102059.63;4979248;28;45760;-86
2021/07/16 10:45:59;;;;;;;;;9.00;9.00;;;;;20.61;55.03;102067.88;4997123;28;48571;-86
2021/07/16 10:48:33;;;;;;;;;7.00;7.00;;;;;20.57;55.17;102071.56;4999324;28;45302;-86
2021/07/16 10:51:00;;;;;;;;;5.00;4.00;;;;;20.49;55.32;102071.69;4990250;28;45608;-82
2021/07/16 10:53:28;;;;;;;;;8.67;7.33;;;;;20.40;55.10;102064.78;5000540;28;46024;-85
2021/07/16 10:55:54;;;;;;;;;8.00;6.67;;;;;20.34;54.94;102074.72;4994187;28;46791;-83
2021/07/16 10:58:20;;;;;;;;;6.33;6.00;;;;;20.30;55.20;102075.72;5002182;28;45420;-85
2021/07/16 11:00:46;;;;;;;;;9.00;9.00;;;;;20.28;54.97;102075.75;4995617;28;45559;-88
2021/07/16 11:03:13;;;;;;;;;8.33;8.00;;;;;20.31;55.12;102082.81;4982673;28;45558;-86
2021/07/16 11:05:39;;;;;;;;;8.00;8.00;;;;;20.34;54.67;102085.44;4987346;28;45999;-85
2021/07/16 11:08:23;;;;;;;;;10.00;9.00;;;;;20.34;54.96;102077.41;4997934;28;45694;-86
2021/07/16 11:10:58;;;;;;;;;7.33;7.00;;;;;20.31;54.97;102083.69;5004266;28;45266;-82
2021/07/16 11:14:13;;;;;;;;;8.00;7.00;;;;;20.36;55.08;102078.25;4992720;28;45567;-81
2021/07/16 11:16:41;;;;;;;;;9.33;8.33;;;;;20.48;55.06;102081.53;4999219;28;47255;-82
2021/07/16 11:19:11;;;;;;;;;8.00;8.00;;;;;20.58;54.64;102082.25;5000121;28;45584;-87
2021/07/16 11:21:39;;;;;;;;;7.67;6.67;;;;;20.65;54.07;102080.28;5004424;28;45359;-86
2021/07/16 11:24:05;;;;;;;;;8.33;8.33;;;;;20.68;54.86;102082.88;5000477;28;45886;-82
2021/07/16 11:26:32;;;;;;;;;11.67;9.67;;;;;20.70;54.19;102086.41;5000355;28;47041;-85